sensor_id;sensor_type;location;lat;lon;timestamp;temperature;humidity
19781;DHT22;10050;55.492;13.506;2023-03-05T00:01:31;1.00;99.90
19781;DHT22;10050;55.492;13.506;2023-03-05T00:04:01;1.00;99.90
19781;DHT22;10050;55.492;13.506;2023-03-05T00:06:28;1.00;99.90
19781;DHT22;10050;55.492;13.506;2023-03-05T00:08:55;0.90;99.90
19781;DHT22;10050;55.492;13.506;2023-03-05T00:11:26;1.00;99.90
19781;DHT22;10050;55.492;13.506;2023-03-05T00:13:55;1.00;99.90
19781;DHT22;10050;55.492;13.506;2023-03-05T00:16:21;1.00;99.90
19781;DHT22;10050;55.492;13.506;2023-03-05T00:18:47;1.10;99.90
19781;DHT22;10050;55.492;13.506;2023-03-05T00:21:34;1.10;99.90
19781;DHT22;10050;55.492;13.506;2023-03-05T00:24:02;1.10;99.90
19781;DHT22;10050;55.492;13.506;2023-03-05T00:26:29;1.10;99.90
19781;DHT22;10050;55.492;13.506;2023-03-05T00:28:56;1.10;99.90
19781;DHT22;10050;55.492;13.506;2023-03-05T00:31:24;1.10;99.90
19781;DHT22;10050;55.492;13.506;2023-03-05T00:33:52;1.10;99.90
19781;DHT22;10050;55.492;13.506;2023-03-05T00:36:18;1.10;99.90
19781;DHT22;10050;55.492;13.506;2023-03-05T00:38:44;1.10;99.90
19781;DHT22;10050;55.492;13.506;2023-03-05T00:41:10;1.10;99.90
19781;DHT22;10050;55.492;13.506;2023-03-05T00:43:35;1.10;99.90
19781;DHT22;10050;55.492;13.506;2023-03-05T00:46:01;1.10;99.90
19781;DHT22;10050;55.492;13.506;2023-03-05T00:48:27;1.10;99.90
19781;DHT22;10050;55.492;13.506;2023-03-05T00:50:53;1.10;99.90
19781;DHT22;10050;55.492;13.506;2023-03-05T00:53:20;1.10;99.90
19781;DHT22;10050;55.492;13.506;2023-03-05T00:55:46;1.10;99.90
19781;DHT22;10050;55.492;13.506;2023-03-05T00:58:12;1.00;99.90
19781;DHT22;10050;55.492;13.506;2023-03-05T01:00:38;1.00;99.90
19781;DHT22;10050;55.492;13.506;2023-03-05T01:03:04;1.00;99.90
19781;DHT22;10050;55.492;13.506;2023-03-05T01:05:30;0.90;99.90
19781;DHT22;10050;55.492;13.506;2023-03-05T01:07:56;0.90;99.90
19781;DHT22;10050;55.492;13.506;2023-03-05T01:10:22;0.90;99.90
19781;DHT22;10050;55.492;13.506;2023-03-05T01:12:51;0.80;99.90
19781;DHT22;10050;55.492;13.506;2023-03-05T01:15:17;0.80;99.90
19781;DHT22;10050;55.492;13.506;2023-03-05T01:17:43;0.80;99.90
19781;DHT22;10050;55.492;13.506;2023-03-05T01:20:11;0.80;99.90
19781;DHT22;10050;55.492;13.506;2023-03-05T01:22:37;0.80;99.90
19781;DHT22;10050;55.492;13.506;2023-03-05T01:25:03;0.80;99.90
19781;DHT22;10050;55.492;13.506;2023-03-05T01:27:29;0.80;99.90
19781;DHT22;10050;55.492;13.506;2023-03-05T01:29:54;0.80;99.90
19781;DHT22;10050;55.492;13.506;2023-03-05T01:32:20;0.70;99.90
19781;DHT22;10050;55.492;13.506;2023-03-05T01:34:46;0.70;99.90
19781;DHT22;10050;55.492;13.506;2023-03-05T01:37:11;0.70;99.90
19781;DHT22;10050;55.492;13.506;2023-03-05T01:39:37;0.70;99.90
19781;DHT22;10050;55.492;13.506;2023-03-05T01:42:04;0.70;99.90
19781;DHT22;10050;55.492;13.506;2023-03-05T01:44:31;0.80;99.90
19781;DHT22;10050;55.492;13.506;2023-03-05T01:46:57;0.80;99.90
19781;DHT22;10050;55.492;13.506;2023-03-05T01:49:31;0.80;99.90
19781;DHT22;10050;55.492;13.506;2023-03-05T01:52:04;0.80;99.90
19781;DHT22;10050;55.492;13.506;2023-03-05T01:54:38;0.70;99.90
19781;DHT22;10050;55.492;13.506;2023-03-05T01:57:14;0.60;99.90
19781;DHT22;10050;55.492;13.506;2023-03-05T01:59:41;0.60;99.90
19781;DHT22;10050;55.492;13.506;2023-03-05T02:02:08;0.50;99.90
19781;DHT22;10050;55.492;13.506;2023-03-05T02:04:47;0.50;99.90
19781;DHT22;10050;55.492;13.506;2023-03-05T02:07:15;0.40;99.90
19781;DHT22;10050;55.492;13.506;2023-03-05T02:09:41;0.40;99.90
19781;DHT22;10050;55.492;13.506;2023-03-05T02:12:08;0.40;99.90
19781;DHT22;10050;55.492;13.506;2023-03-05T02:14:35;0.40;99.90
19781;DHT22;10050;55.492;13.506;2023-03-05T02:17:00;0.40;99.90
19781;DHT22;10050;55.492;13.506;2023-03-05T02:19:26;0.40;99.90
19781;DHT22;10050;55.492;13.506;2023-03-05T02:21:52;0.50;99.90
19781;DHT22;10050;55.492;13.506;2023-03-05T02:24:33;0.50;99.90
19781;DHT22;10050;55.492;13.506;2023-03-05T02:27:00;0.50;99.90
19781;DHT22;10050;55.492;13.506;2023-03-05T02:29:27;0.50;99.90
19781;DHT22;10050;55.492;13.506;2023-03-05T02:31:54;0.50;99.90
19781;DHT22;10050;55.492;13.506;2023-03-05T02:34:21;0.50;99.90
19781;DHT22;10050;55.492;13.506;2023-03-05T02:36:46;0.50;99.90
19781;DHT22;10050;55.492;13.506;2023-03-05T02:39:15;0.50;99.90
19781;DHT22;10050;55.492;13.506;2023-03-05T02:41:40;0.50;99.90
19781;DHT22;10050;55.492;13.506;2023-03-05T02:44:09;0.50;99.90
19781;DHT22;10050;55.492;13.506;2023-03-05T02:46:35;0.50;99.90
19781;DHT22;10050;55.492;13.506;2023-03-05T02:49:00;0.50;99.90
19781;DHT22;10050;55.492;13.506;2023-03-05T02:51:26;0.50;99.90
19781;DHT22;10050;55.492;13.506;2023-03-05T02:53:52;0.50;99.90
19781;DHT22;10050;55.492;13.506;2023-03-05T02:56:18;0.40;99.90
19781;DHT22;10050;55.492;13.506;2023-03-05T02:58:43;0.40;99.90
19781;DHT22;10050;55.492;13.506;2023-03-05T03:01:09;0.40;99.90
19781;DHT22;10050;55.492;13.506;2023-03-05T03:03:35;0.30;99.90
19781;DHT22;10050;55.492;13.506;2023-03-05T03:06:01;0.20;99.90
19781;DHT22;10050;55.492;13.506;2023-03-05T03:08:27;0.20;99.90
19781;DHT22;10050;55.492;13.506;2023-03-05T03:10:53;0.20;99.90
19781;DHT22;10050;55.492;13.506;2023-03-05T03:13:22;0.20;99.90
19781;DHT22;10050;55.492;13.506;2023-03-05T03:15:48;0.20;99.90
19781;DHT22;10050;55.492;13.506;2023-03-05T03:18:14;0.10;99.90
19781;DHT22;10050;55.492;13.506;2023-03-05T03:20:39;0.00;99.90
19781;DHT22;10050;55.492;13.506;2023-03-05T03:23:05;0.00;99.90
19781;DHT22;10050;55.492;13.506;2023-03-05T03:25:31;0.00;99.90
19781;DHT22;10050;55.492;13.506;2023-03-05T03:27:57;-0.10;99.90
19781;DHT22;10050;55.492;13.506;2023-03-05T03:30:22;-0.10;99.90
19781;DHT22;10050;55.492;13.506;2023-03-05T03:32:50;-0.10;99.90
19781;DHT22;10050;55.492;13.506;2023-03-05T03:35:16;0.00;99.90
19781;DHT22;10050;55.492;13.506;2023-03-05T03:37:42;0.10;99.90
19781;DHT22;10050;55.492;13.506;2023-03-05T03:40:08;0.20;99.90
19781;DHT22;10050;55.492;13.506;2023-03-05T03:42:34;0.20;99.90
19781;DHT22;10050;55.492;13.506;2023-03-05T03:45:00;0.30;99.90
19781;DHT22;10050;55.492;13.506;2023-03-05T03:47:27;0.40;99.90
19781;DHT22;10050;55.492;13.506;2023-03-05T03:49:53;0.40;99.90
19781;DHT22;10050;55.492;13.506;2023-03-05T03:52:19;0.50;99.90
19781;DHT22;10050;55.492;13.506;2023-03-05T03:54:47;0.50;99.90
19781;DHT22;10050;55.492;13.506;2023-03-05T03:57:13;0.50;99.90
19781;DHT22;10050;55.492;13.506;2023-03-05T03:59:39;0.50;99.90
19781;DHT22;10050;55.492;13.506;2023-03-05T04:02:05;0.60;99.90
19781;DHT22;10050;55.492;13.506;2023-03-05T04:04:30;0.60;99.90
19781;DHT22;10050;55.492;13.506;2023-03-05T04:06:56;0.60;99.90
19781;DHT22;10050;55.492;13.506;2023-03-05T04:09:22;0.60;99.90
19781;DHT22;10050;55.492;13.506;2023-03-05T04:11:47;0.70;99.90
19781;DHT22;10050;55.492;13.506;2023-03-05T04:14:13;0.70;99.90
19781;DHT22;10050;55.492;13.506;2023-03-05T04:16:38;0.70;99.90
19781;DHT22;10050;55.492;13.506;2023-03-05T04:19:04;0.70;99.90
19781;DHT22;10050;55.492;13.506;2023-03-05T04:21:30;0.70;99.90
19781;DHT22;10050;55.492;13.506;2023-03-05T04:23:55;0.70;99.90
19781;DHT22;10050;55.492;13.506;2023-03-05T04:26:21;0.70;99.90
19781;DHT22;10050;55.492;13.506;2023-03-05T04:28:47;0.70;99.90
19781;DHT22;10050;55.492;13.506;2023-03-05T04:31:13;0.70;99.90
19781;DHT22;10050;55.492;13.506;2023-03-05T04:33:39;0.70;99.90
19781;DHT22;10050;55.492;13.506;2023-03-05T04:36:05;0.70;99.90
19781;DHT22;10050;55.492;13.506;2023-03-05T04:38:31;0.70;99.90
19781;DHT22;10050;55.492;13.506;2023-03-05T04:40:56;0.70;99.90
19781;DHT22;10050;55.492;13.506;2023-03-05T04:43:22;0.60;99.90
19781;DHT22;10050;55.492;13.506;2023-03-05T04:45:48;0.60;99.90
19781;DHT22;10050;55.492;13.506;2023-03-05T04:48:13;0.70;99.90
19781;DHT22;10050;55.492;13.506;2023-03-05T04:50:39;0.60;99.90
19781;DHT22;10050;55.492;13.506;2023-03-05T04:53:05;0.70;99.90
19781;DHT22;10050;55.492;13.506;2023-03-05T04:55:31;0.70;99.90
19781;DHT22;10050;55.492;13.506;2023-03-05T04:57:57;0.70;99.90
19781;DHT22;10050;55.492;13.506;2023-03-05T05:00:22;0.70;99.90
19781;DHT22;10050;55.492;13.506;2023-03-05T05:02:50;0.70;99.90
19781;DHT22;10050;55.492;13.506;2023-03-05T05:05:19;0.70;99.90
19781;DHT22;10050;55.492;13.506;2023-03-05T05:07:45;0.70;99.90
19781;DHT22;10050;55.492;13.506;2023-03-05T05:10:12;0.70;99.90
19781;DHT22;10050;55.492;13.506;2023-03-05T05:12:38;0.70;99.90
19781;DHT22;10050;55.492;13.506;2023-03-05T05:15:05;0.60;99.90
19781;DHT22;10050;55.492;13.506;2023-03-05T05:17:31;0.60;99.90
19781;DHT22;10050;55.492;13.506;2023-03-05T05:19:59;0.60;99.90
19781;DHT22;10050;55.492;13.506;2023-03-05T05:22:27;0.60;99.90
19781;DHT22;10050;55.492;13.506;2023-03-05T05:24:53;0.50;99.90
19781;DHT22;10050;55.492;13.506;2023-03-05T05:27:19;0.50;99.90
19781;DHT22;10050;55.492;13.506;2023-03-05T05:29:44;0.50;99.90
19781;DHT22;10050;55.492;13.506;2023-03-05T05:32:20;0.50;99.90
19781;DHT22;10050;55.492;13.506;2023-03-05T05:34:47;0.40;99.90
19781;DHT22;10050;55.492;13.506;2023-03-05T05:37:13;0.30;99.90
19781;DHT22;10050;55.492;13.506;2023-03-05T05:39:38;0.30;99.90
19781;DHT22;10050;55.492;13.506;2023-03-05T05:42:04;0.30;99.90
19781;DHT22;10050;55.492;13.506;2023-03-05T05:44:30;0.20;99.90
19781;DHT22;10050;55.492;13.506;2023-03-05T05:46:57;0.20;99.90
19781;DHT22;10050;55.492;13.506;2023-03-05T05:49:23;0.10;99.90
19781;DHT22;10050;55.492;13.506;2023-03-05T05:51:49;0.10;99.90
19781;DHT22;10050;55.492;13.506;2023-03-05T05:54:14;0.10;99.90
19781;DHT22;10050;55.492;13.506;2023-03-05T05:56:40;0.20;99.90
19781;DHT22;10050;55.492;13.506;2023-03-05T05:59:07;0.20;99.90
19781;DHT22;10050;55.492;13.506;2023-03-05T06:01:33;0.20;99.90
19781;DHT22;10050;55.492;13.506;2023-03-05T06:03:59;0.10;99.90
19781;DHT22;10050;55.492;13.506;2023-03-05T06:06:28;0.20;99.90
19781;DHT22;10050;55.492;13.506;2023-03-05T06:08:54;0.20;99.90
19781;DHT22;10050;55.492;13.506;2023-03-05T06:11:21;0.30;99.90
19781;DHT22;10050;55.492;13.506;2023-03-05T06:13:47;0.30;99.90
19781;DHT22;10050;55.492;13.506;2023-03-05T06:16:16;0.40;99.90
19781;DHT22;10050;55.492;13.506;2023-03-05T06:18:42;0.40;99.90
19781;DHT22;10050;55.492;13.506;2023-03-05T06:21:12;0.50;99.90
19781;DHT22;10050;55.492;13.506;2023-03-05T06:23:38;0.60;99.90
19781;DHT22;10050;55.492;13.506;2023-03-05T06:26:06;0.60;99.90
19781;DHT22;10050;55.492;13.506;2023-03-05T06:28:32;0.70;99.90
19781;DHT22;10050;55.492;13.506;2023-03-05T06:31:18;0.80;99.90
19781;DHT22;10050;55.492;13.506;2023-03-05T06:33:49;1.00;99.90
19781;DHT22;10050;55.492;13.506;2023-03-05T06:36:17;1.10;99.90
19781;DHT22;10050;55.492;13.506;2023-03-05T06:38:43;1.20;99.90
19781;DHT22;10050;55.492;13.506;2023-03-05T06:41:12;1.30;99.90
19781;DHT22;10050;55.492;13.506;2023-03-05T06:43:40;1.40;99.90
19781;DHT22;10050;55.492;13.506;2023-03-05T06:46:10;1.50;99.90
19781;DHT22;10050;55.492;13.506;2023-03-05T06:48:39;1.70;99.90
19781;DHT22;10050;55.492;13.506;2023-03-05T06:51:15;1.90;99.90
19781;DHT22;10050;55.492;13.506;2023-03-05T06:53:41;2.10;99.90
19781;DHT22;10050;55.492;13.506;2023-03-05T06:56:07;2.50;99.90
19781;DHT22;10050;55.492;13.506;2023-03-05T06:58:34;2.90;99.90
19781;DHT22;10050;55.492;13.506;2023-03-05T07:01:00;3.10;99.90
19781;DHT22;10050;55.492;13.506;2023-03-05T07:03:25;3.50;99.90
19781;DHT22;10050;55.492;13.506;2023-03-05T07:05:51;3.70;99.90
19781;DHT22;10050;55.492;13.506;2023-03-05T07:08:16;3.90;99.90
19781;DHT22;10050;55.492;13.506;2023-03-05T07:10:42;4.40;99.90
19781;DHT22;10050;55.492;13.506;2023-03-05T07:13:08;4.90;99.90
19781;DHT22;10050;55.492;13.506;2023-03-05T07:15:37;5.50;99.90
19781;DHT22;10050;55.492;13.506;2023-03-05T07:18:04;5.90;99.90
19781;DHT22;10050;55.492;13.506;2023-03-05T07:20:32;6.50;99.90
19781;DHT22;10050;55.492;13.506;2023-03-05T07:22:58;7.20;99.90
19781;DHT22;10050;55.492;13.506;2023-03-05T07:25:23;8.10;99.90
19781;DHT22;10050;55.492;13.506;2023-03-05T07:27:49;9.00;99.90
19781;DHT22;10050;55.492;13.506;2023-03-05T07:30:17;9.90;99.90
19781;DHT22;10050;55.492;13.506;2023-03-05T07:32:43;10.70;99.90
19781;DHT22;10050;55.492;13.506;2023-03-05T07:35:09;11.70;99.90
19781;DHT22;10050;55.492;13.506;2023-03-05T07:37:35;13.10;99.90
19781;DHT22;10050;55.492;13.506;2023-03-05T07:40:00;14.70;99.90
19781;DHT22;10050;55.492;13.506;2023-03-05T07:42:26;15.50;99.90
19781;DHT22;10050;55.492;13.506;2023-03-05T07:44:52;16.00;99.90
19781;DHT22;10050;55.492;13.506;2023-03-05T07:47:18;16.60;99.20
19781;DHT22;10050;55.492;13.506;2023-03-05T07:49:43;17.10;97.20
19781;DHT22;10050;55.492;13.506;2023-03-05T07:52:09;17.90;94.50
19781;DHT22;10050;55.492;13.506;2023-03-05T07:54:37;18.80;92.70
19781;DHT22;10050;55.492;13.506;2023-03-05T07:57:04;19.30;91.70
19781;DHT22;10050;55.492;13.506;2023-03-05T07:59:30;19.90;90.30
19781;DHT22;10050;55.492;13.506;2023-03-05T08:01:56;20.30;88.60
19781;DHT22;10050;55.492;13.506;2023-03-05T08:04:22;20.50;89.10
19781;DHT22;10050;55.492;13.506;2023-03-05T08:06:47;20.20;85.70
19781;DHT22;10050;55.492;13.506;2023-03-05T08:09:14;20.30;83.60
19781;DHT22;10050;55.492;13.506;2023-03-05T08:11:40;20.60;83.30
19781;DHT22;10050;55.492;13.506;2023-03-05T08:14:06;20.70;83.10
19781;DHT22;10050;55.492;13.506;2023-03-05T08:16:32;21.10;81.30
19781;DHT22;10050;55.492;13.506;2023-03-05T08:18:58;21.40;82.20
19781;DHT22;10050;55.492;13.506;2023-03-05T08:21:26;21.50;79.30
19781;DHT22;10050;55.492;13.506;2023-03-05T08:23:54;21.30;79.60
19781;DHT22;10050;55.492;13.506;2023-03-05T08:26:22;20.90;77.90
19781;DHT22;10050;55.492;13.506;2023-03-05T08:28:48;20.80;77.90
19781;DHT22;10050;55.492;13.506;2023-03-05T08:31:15;21.10;78.00
19781;DHT22;10050;55.492;13.506;2023-03-05T08:33:42;21.10;78.40
19781;DHT22;10050;55.492;13.506;2023-03-05T08:36:08;21.10;76.60
19781;DHT22;10050;55.492;13.506;2023-03-05T08:38:34;20.50;77.40
19781;DHT22;10050;55.492;13.506;2023-03-05T08:41:00;20.20;76.30
19781;DHT22;10050;55.492;13.506;2023-03-05T08:43:25;19.90;77.40
19781;DHT22;10050;55.492;13.506;2023-03-05T08:45:51;19.70;79.10
19781;DHT22;10050;55.492;13.506;2023-03-05T08:48:18;18.90;78.80
19781;DHT22;10050;55.492;13.506;2023-03-05T08:50:44;18.60;79.50
19781;DHT22;10050;55.492;13.506;2023-03-05T08:53:10;18.80;80.70
19781;DHT22;10050;55.492;13.506;2023-03-05T08:55:36;19.00;78.40
19781;DHT22;10050;55.492;13.506;2023-03-05T08:58:02;19.00;80.40
19781;DHT22;10050;55.492;13.506;2023-03-05T09:00:28;18.60;79.40
19781;DHT22;10050;55.492;13.506;2023-03-05T09:02:54;18.40;80.20
19781;DHT22;10050;55.492;13.506;2023-03-05T09:05:20;18.40;79.20
19781;DHT22;10050;55.492;13.506;2023-03-05T09:07:46;18.00;81.50
19781;DHT22;10050;55.492;13.506;2023-03-05T09:10:12;17.50;81.30
19781;DHT22;10050;55.492;13.506;2023-03-05T09:12:39;17.10;82.30
19781;DHT22;10050;55.492;13.506;2023-03-05T09:15:07;16.90;82.70
19781;DHT22;10050;55.492;13.506;2023-03-05T09:17:37;16.40;82.90
19781;DHT22;10050;55.492;13.506;2023-03-05T09:20:04;16.30;84.40
19781;DHT22;10050;55.492;13.506;2023-03-05T09:22:30;16.10;84.50
19781;DHT22;10050;55.492;13.506;2023-03-05T09:24:56;15.60;84.90
19781;DHT22;10050;55.492;13.506;2023-03-05T09:27:22;15.60;85.10
19781;DHT22;10050;55.492;13.506;2023-03-05T09:29:48;15.60;88.60
19781;DHT22;10050;55.492;13.506;2023-03-05T09:32:14;15.30;84.20
19781;DHT22;10050;55.492;13.506;2023-03-05T09:34:40;15.00;86.40
19781;DHT22;10050;55.492;13.506;2023-03-05T09:37:05;14.70;85.40
19781;DHT22;10050;55.492;13.506;2023-03-05T09:39:32;14.80;90.30
19781;DHT22;10050;55.492;13.506;2023-03-05T09:42:25;14.50;86.40
19781;DHT22;10050;55.492;13.506;2023-03-05T09:44:59;15.10;86.90
19781;DHT22;10050;55.492;13.506;2023-03-05T09:52:53;15.00;86.00
19781;DHT22;10050;55.492;13.506;2023-03-05T09:55:26;15.10;90.10
19781;DHT22;10050;55.492;13.506;2023-03-05T09:57:55;14.90;88.30
19781;DHT22;10050;55.492;13.506;2023-03-05T10:03:04;13.80;91.30
19781;DHT22;10050;55.492;13.506;2023-03-05T10:08:11;13.00;90.40
19781;DHT22;10050;55.492;13.506;2023-03-05T10:10:47;13.40;90.50
19781;DHT22;10050;55.492;13.506;2023-03-05T10:18:57;14.20;90.10
19781;DHT22;10050;55.492;13.506;2023-03-05T10:21:26;14.50;90.50
19781;DHT22;10050;55.492;13.506;2023-03-05T10:26:43;12.90;87.00
19781;DHT22;10050;55.492;13.506;2023-03-05T10:34:48;12.80;94.90
19781;DHT22;10050;55.492;13.506;2023-03-05T10:37:30;13.40;91.30
19781;DHT22;10050;55.492;13.506;2023-03-05T10:40:04;13.70;90.90
19781;DHT22;10050;55.492;13.506;2023-03-05T10:42:57;13.90;92.10
19781;DHT22;10050;55.492;13.506;2023-03-05T10:45:35;13.70;89.50
19781;DHT22;10050;55.492;13.506;2023-03-05T10:53:56;13.20;90.80
19781;DHT22;10050;55.492;13.506;2023-03-05T10:56:25;13.10;93.40
19781;DHT22;10050;55.492;13.506;2023-03-05T10:58:51;13.20;91.80
19781;DHT22;10050;55.492;13.506;2023-03-05T11:01:22;12.90;90.70
19781;DHT22;10050;55.492;13.506;2023-03-05T11:08:51;11.80;93.00
19781;DHT22;10050;55.492;13.506;2023-03-05T11:11:19;11.70;93.40
19781;DHT22;10050;55.492;13.506;2023-03-05T11:13:53;11.70;92.00
19781;DHT22;10050;55.492;13.506;2023-03-05T11:16:29;11.60;94.90
19781;DHT22;10050;55.492;13.506;2023-03-05T11:21:43;11.00;92.80
19781;DHT22;10050;55.492;13.506;2023-03-05T11:28:04;11.00;94.30
19781;DHT22;10050;55.492;13.506;2023-03-05T11:30:36;10.80;95.80
19781;DHT22;10050;55.492;13.506;2023-03-05T11:33:16;10.40;97.50
19781;DHT22;10050;55.492;13.506;2023-03-05T11:35:45;10.30;98.50
19781;DHT22;10050;55.492;13.506;2023-03-05T11:38:29;10.10;95.00
19781;DHT22;10050;55.492;13.506;2023-03-05T11:40:55;10.00;97.80
19781;DHT22;10050;55.492;13.506;2023-03-05T11:43:23;10.10;96.70
19781;DHT22;10050;55.492;13.506;2023-03-05T11:45:52;10.10;97.70
19781;DHT22;10050;55.492;13.506;2023-03-05T11:48:27;10.00;97.20
19781;DHT22;10050;55.492;13.506;2023-03-05T11:51:01;9.70;97.90
19781;DHT22;10050;55.492;13.506;2023-03-05T11:53:30;9.40;96.70
19781;DHT22;10050;55.492;13.506;2023-03-05T11:56:23;9.20;99.50
19781;DHT22;10050;55.492;13.506;2023-03-05T11:59:06;9.30;98.80
19781;DHT22;10050;55.492;13.506;2023-03-05T12:01:51;9.20;99.90
19781;DHT22;10050;55.492;13.506;2023-03-05T12:04:18;9.00;99.90
19781;DHT22;10050;55.492;13.506;2023-03-05T12:06:59;8.70;99.90
19781;DHT22;10050;55.492;13.506;2023-03-05T12:20:41;8.20;99.90
19781;DHT22;10050;55.492;13.506;2023-03-05T12:23:12;8.00;99.90
19781;DHT22;10050;55.492;13.506;2023-03-05T12:25:50;7.90;99.90
19781;DHT22;10050;55.492;13.506;2023-03-05T12:30:59;7.40;99.90
19781;DHT22;10050;55.492;13.506;2023-03-05T12:33:36;7.30;99.90
19781;DHT22;10050;55.492;13.506;2023-03-05T12:46:42;7.00;99.90
19781;DHT22;10050;55.492;13.506;2023-03-05T12:51:43;6.70;99.90
19781;DHT22;10050;55.492;13.506;2023-03-05T12:54:27;6.70;99.90
19781;DHT22;10050;55.492;13.506;2023-03-05T12:57:23;6.70;99.90
19781;DHT22;10050;55.492;13.506;2023-03-05T13:00:05;6.90;99.90
19781;DHT22;10050;55.492;13.506;2023-03-05T13:02:36;7.10;99.90
19781;DHT22;10050;55.492;13.506;2023-03-05T13:05:46;7.20;99.90
19781;DHT22;10050;55.492;13.506;2023-03-05T13:10:59;7.40;99.90
19781;DHT22;10050;55.492;13.506;2023-03-05T13:13:27;6.90;99.90
19781;DHT22;10050;55.492;13.506;2023-03-05T13:15:54;7.00;99.90
19781;DHT22;10050;55.492;13.506;2023-03-05T13:18:25;7.10;99.90
19781;DHT22;10050;55.492;13.506;2023-03-05T13:23:28;7.10;99.90
19781;DHT22;10050;55.492;13.506;2023-03-05T13:26:14;7.00;99.90
19781;DHT22;10050;55.492;13.506;2023-03-05T13:28:43;7.00;99.90
19781;DHT22;10050;55.492;13.506;2023-03-05T13:31:17;7.00;99.90
19781;DHT22;10050;55.492;13.506;2023-03-05T13:33:56;7.00;99.90
19781;DHT22;10050;55.492;13.506;2023-03-05T13:36:24;7.00;99.90
19781;DHT22;10050;55.492;13.506;2023-03-05T13:38:50;6.90;99.90
19781;DHT22;10050;55.492;13.506;2023-03-05T13:41:25;6.90;99.90
19781;DHT22;10050;55.492;13.506;2023-03-05T13:46:37;7.10;99.90
19781;DHT22;10050;55.492;13.506;2023-03-05T13:49:24;7.20;99.90
19781;DHT22;10050;55.492;13.506;2023-03-05T13:51:55;7.10;99.90
19781;DHT22;10050;55.492;13.506;2023-03-05T13:54:22;7.20;99.90
19781;DHT22;10050;55.492;13.506;2023-03-05T13:59:23;7.10;99.90
19781;DHT22;10050;55.492;13.506;2023-03-05T14:01:50;7.10;99.90
19781;DHT22;10050;55.492;13.506;2023-03-05T14:04:18;7.00;99.90
19781;DHT22;10050;55.492;13.506;2023-03-05T14:07:07;6.80;99.90
19781;DHT22;10050;55.492;13.506;2023-03-05T14:09:50;6.70;99.90
19781;DHT22;10050;55.492;13.506;2023-03-05T14:12:24;6.70;99.90
19781;DHT22;10050;55.492;13.506;2023-03-05T14:14:58;6.60;99.90
19781;DHT22;10050;55.492;13.506;2023-03-05T14:17:39;6.60;99.90
19781;DHT22;10050;55.492;13.506;2023-03-05T14:20:22;6.60;99.90
19781;DHT22;10050;55.492;13.506;2023-03-05T14:22:52;6.30;99.90
19781;DHT22;10050;55.492;13.506;2023-03-05T14:25:32;6.30;99.90
19781;DHT22;10050;55.492;13.506;2023-03-05T14:28:27;6.30;99.90
19781;DHT22;10050;55.492;13.506;2023-03-05T14:30:54;6.10;99.90
19781;DHT22;10050;55.492;13.506;2023-03-05T14:33:31;6.00;99.90
19781;DHT22;10050;55.492;13.506;2023-03-05T14:36:01;6.10;99.90
19781;DHT22;10050;55.492;13.506;2023-03-05T14:38:29;6.00;99.90
19781;DHT22;10050;55.492;13.506;2023-03-05T14:40:56;6.00;99.90
19781;DHT22;10050;55.492;13.506;2023-03-05T14:43:22;5.90;99.90
19781;DHT22;10050;55.492;13.506;2023-03-05T14:45:48;5.90;99.90
19781;DHT22;10050;55.492;13.506;2023-03-05T14:48:16;5.80;99.90
19781;DHT22;10050;55.492;13.506;2023-03-05T14:50:47;5.90;99.90
19781;DHT22;10050;55.492;13.506;2023-03-05T14:53:27;5.80;99.90
19781;DHT22;10050;55.492;13.506;2023-03-05T14:55:57;5.80;99.90
19781;DHT22;10050;55.492;13.506;2023-03-05T14:58:35;5.60;99.90
19781;DHT22;10050;55.492;13.506;2023-03-05T15:01:01;5.60;99.90
19781;DHT22;10050;55.492;13.506;2023-03-05T15:03:27;5.50;99.90
19781;DHT22;10050;55.492;13.506;2023-03-05T15:05:55;5.50;99.90
19781;DHT22;10050;55.492;13.506;2023-03-05T15:08:26;5.40;99.90
19781;DHT22;10050;55.492;13.506;2023-03-05T15:10:53;5.40;99.90
19781;DHT22;10050;55.492;13.506;2023-03-05T15:13:19;5.30;99.90
19781;DHT22;10050;55.492;13.506;2023-03-05T15:15:47;5.20;99.90
19781;DHT22;10050;55.492;13.506;2023-03-05T15:18:15;5.00;99.90
19781;DHT22;10050;55.492;13.506;2023-03-05T15:20:43;4.90;99.90
19781;DHT22;10050;55.492;13.506;2023-03-05T15:23:09;4.90;99.90
19781;DHT22;10050;55.492;13.506;2023-03-05T15:25:36;5.00;99.90
19781;DHT22;10050;55.492;13.506;2023-03-05T15:28:01;4.90;99.90
19781;DHT22;10050;55.492;13.506;2023-03-05T15:30:31;4.80;99.90
19781;DHT22;10050;55.492;13.506;2023-03-05T15:33:01;4.70;99.90
19781;DHT22;10050;55.492;13.506;2023-03-05T15:35:27;4.70;99.90
19781;DHT22;10050;55.492;13.506;2023-03-05T15:37:53;4.60;99.90
19781;DHT22;10050;55.492;13.506;2023-03-05T15:40:20;4.50;99.90
19781;DHT22;10050;55.492;13.506;2023-03-05T15:42:46;4.50;99.90
19781;DHT22;10050;55.492;13.506;2023-03-05T15:45:14;4.50;99.90
19781;DHT22;10050;55.492;13.506;2023-03-05T15:47:43;4.40;99.90
19781;DHT22;10050;55.492;13.506;2023-03-05T15:50:09;4.30;99.90
19781;DHT22;10050;55.492;13.506;2023-03-05T15:52:35;4.20;99.90
19781;DHT22;10050;55.492;13.506;2023-03-05T15:55:02;4.20;99.90
19781;DHT22;10050;55.492;13.506;2023-03-05T15:57:28;4.10;99.90
19781;DHT22;10050;55.492;13.506;2023-03-05T15:59:54;4.10;99.90
19781;DHT22;10050;55.492;13.506;2023-03-05T16:02:20;4.10;99.90
19781;DHT22;10050;55.492;13.506;2023-03-05T16:04:45;4.00;99.90
19781;DHT22;10050;55.492;13.506;2023-03-05T16:07:12;3.90;99.90
19781;DHT22;10050;55.492;13.506;2023-03-05T16:09:44;3.80;99.90
19781;DHT22;10050;55.492;13.506;2023-03-05T16:12:18;3.80;99.90
19781;DHT22;10050;55.492;13.506;2023-03-05T16:14:44;3.70;99.90
19781;DHT22;10050;55.492;13.506;2023-03-05T16:17:11;3.70;99.90
19781;DHT22;10050;55.492;13.506;2023-03-05T16:19:40;3.70;99.90
19781;DHT22;10050;55.492;13.506;2023-03-05T16:22:07;3.60;99.90
19781;DHT22;10050;55.492;13.506;2023-03-05T16:24:32;3.50;99.90
19781;DHT22;10050;55.492;13.506;2023-03-05T16:26:58;3.50;99.90
19781;DHT22;10050;55.492;13.506;2023-03-05T16:29:24;3.50;99.90
19781;DHT22;10050;55.492;13.506;2023-03-05T16:31:51;3.50;99.90
19781;DHT22;10050;55.492;13.506;2023-03-05T16:34:17;3.40;99.90
19781;DHT22;10050;55.492;13.506;2023-03-05T16:36:48;3.20;99.90
19781;DHT22;10050;55.492;13.506;2023-03-05T16:39:15;3.10;99.90
19781;DHT22;10050;55.492;13.506;2023-03-05T16:41:40;3.10;99.90
19781;DHT22;10050;55.492;13.506;2023-03-05T16:44:06;3.10;99.90
19781;DHT22;10050;55.492;13.506;2023-03-05T16:46:32;3.20;99.90
19781;DHT22;10050;55.492;13.506;2023-03-05T16:48:58;3.10;99.90
19781;DHT22;10050;55.492;13.506;2023-03-05T16:51:25;3.10;99.90
19781;DHT22;10050;55.492;13.506;2023-03-05T16:53:51;3.00;99.90
19781;DHT22;10050;55.492;13.506;2023-03-05T16:56:17;2.90;99.90